createdAt,value
2016-11-17T00:00:06.524Z,11.8
2016-11-17T00:00:16.530Z,11.8
2016-11-17T00:00:26.527Z,11.8
2016-11-17T00:00:36.506Z,11.8
2016-11-17T00:00:46.520Z,11.8
2016-11-17T00:00:56.477Z,11.8
2016-11-17T00:01:06.501Z,11.8
2016-11-17T00:01:16.484Z,11.8
2016-11-17T00:01:26.490Z,11.8
2016-11-17T00:01:36.485Z,11.8
2016-11-17T00:01:46.478Z,11.8
2016-11-17T00:01:56.454Z,11.8
2016-11-17T00:02:06.459Z,11.8
2016-11-17T00:02:16.469Z,11.8
2016-11-17T00:02:26.437Z,11.8
2016-11-17T00:02:36.421Z,11.8
2016-11-17T00:02:46.433Z,11.8
2016-11-17T00:02:56.426Z,11.8
2016-11-17T00:03:06.425Z,11.8
2016-11-17T00:03:16.420Z,11.7
2016-11-17T00:03:26.423Z,11.7
2016-11-17T00:03:36.404Z,11.7
2016-11-17T00:03:46.408Z,11.7
2016-11-17T00:03:56.408Z,11.7
2016-11-17T00:04:06.369Z,11.7
2016-11-17T00:04:16.538Z,11.7
2016-11-17T00:04:26.383Z,11.7
2016-11-17T00:04:36.384Z,11.7
2016-11-17T00:04:46.358Z,11.7
2016-11-17T00:04:56.350Z,11.7
2016-11-17T00:05:06.364Z,11.7
2016-11-17T00:05:16.345Z,11.7
2016-11-17T00:05:26.348Z,11.7
2016-11-17T00:05:36.364Z,11.7
2016-11-17T00:05:46.337Z,11.7
2016-11-17T00:05:56.326Z,11.7
2016-11-17T00:06:06.300Z,11.7
2016-11-17T00:06:16.321Z,11.7
2016-11-17T00:06:26.314Z,11.7
2016-11-17T00:06:36.307Z,11.7
2016-11-17T00:06:46.305Z,11.7
2016-11-17T00:06:56.287Z,11.7
2016-11-17T00:07:06.266Z,11.7
2016-11-17T00:07:16.278Z,11.7
2016-11-17T00:07:26.261Z,11.7
2016-11-17T00:07:36.276Z,11.7
2016-11-17T00:07:46.424Z,11.7
2016-11-17T00:07:56.239Z,11.6
2016-11-17T00:08:06.244Z,11.6
2016-11-17T00:08:16.241Z,11.6
2016-11-17T00:08:26.236Z,11.6
2016-11-17T00:08:36.247Z,11.6
2016-11-17T00:08:46.246Z,11.6
2016-11-17T00:08:56.219Z,11.6
2016-11-17T00:09:06.233Z,11.6
2016-11-17T00:09:16.499Z,11.6
2016-11-17T00:09:26.212Z,11.6
2016-11-17T00:09:36.203Z,11.6
2016-11-17T00:09:46.191Z,11.6
2016-11-17T00:09:56.193Z,11.6
2016-11-17T00:10:06.174Z,11.6
2016-11-17T00:10:16.178Z,11.6
2016-11-17T00:10:26.181Z,11.6
2016-11-17T00:10:36.191Z,11.6
2016-11-17T00:10:46.161Z,11.6
2016-11-17T00:10:56.148Z,11.6
2016-11-17T00:11:06.138Z,11.6
2016-11-17T00:11:16.138Z,11.5
2016-11-17T00:11:26.114Z,11.5
2016-11-17T00:11:36.127Z,11.6
2016-11-17T00:11:46.114Z,11.6
2016-11-17T00:11:56.123Z,11.6
2016-11-17T00:12:06.109Z,11.6
2016-11-17T00:12:16.087Z,11.5
2016-11-17T00:12:26.092Z,11.5
2016-11-17T00:12:36.104Z,11.5
2016-11-17T00:12:46.085Z,11.5
2016-11-17T00:12:56.091Z,11.5
2016-11-17T00:13:06.067Z,11.5
2016-11-17T00:13:16.085Z,11.5
2016-11-17T00:13:26.076Z,11.5
2016-11-17T00:13:36.062Z,11.5
2016-11-17T00:13:46.043Z,11.5
2016-11-17T00:13:56.055Z,11.5
2016-11-17T00:14:06.057Z,11.5
2016-11-17T00:14:16.045Z,11.5
2016-11-17T00:14:26.033Z,11.5
2016-11-17T00:14:36.023Z,11.5
2016-11-17T00:14:46.025Z,11.5
2016-11-17T00:14:56.023Z,11.5
2016-11-17T00:15:05.994Z,11.5
2016-11-17T00:15:15.990Z,11.5
2016-11-17T00:15:25.999Z,11.5
2016-11-17T00:15:35.991Z,11.5
2016-11-17T00:15:45.972Z,11.5
2016-11-17T00:15:55.970Z,11.5
2016-11-17T00:16:05.960Z,11.5
2016-11-17T00:16:15.952Z,11.4
2016-11-17T00:16:25.988Z,11.4
2016-11-17T00:16:35.948Z,11.5
2016-11-17T00:16:45.941Z,11.4
2016-11-17T00:16:55.945Z,11.4
2016-11-17T00:17:05.950Z,11.4
2016-11-17T00:17:15.920Z,11.5
2016-11-17T00:17:25.955Z,11.5
2016-11-17T00:17:35.901Z,11.5
2016-11-17T00:17:45.909Z,11.5
2016-11-17T00:17:55.906Z,11.5
2016-11-17T00:18:05.896Z,11.5
2016-11-17T00:18:15.890Z,11.5
2016-11-17T00:18:25.892Z,11.5
2016-11-17T00:18:35.915Z,11.5
2016-11-17T00:18:46.235Z,11.5
2016-11-17T00:18:55.868Z,11.4
2016-11-17T00:19:05.871Z,11.5
2016-11-17T00:19:15.868Z,11.4
2016-11-17T00:19:25.855Z,11.5
2016-11-17T00:19:35.855Z,11.4
2016-11-17T00:19:45.842Z,11.4
2016-11-17T00:19:55.831Z,11.5
2016-11-17T00:20:05.831Z,11.5
2016-11-17T00:20:15.827Z,11.5
2016-11-17T00:20:25.827Z,11.5
2016-11-17T00:20:35.816Z,11.5
2016-11-17T00:20:46.194Z,11.5
2016-11-17T00:20:55.822Z,11.4
2016-11-17T00:21:05.795Z,11.4
2016-11-17T00:21:15.816Z,11.4
2016-11-17T00:21:26.156Z,11.4
2016-11-17T00:21:35.782Z,11.4
2016-11-17T00:21:45.778Z,11.4
2016-11-17T00:21:55.750Z,11.4
2016-11-17T00:22:05.766Z,11.4
2016-11-17T00:22:15.757Z,11.4
2016-11-17T00:22:25.761Z,11.4
2016-11-17T00:22:35.746Z,11.4
2016-11-17T00:22:45.741Z,11.4
2016-11-17T00:22:55.730Z,11.4
2016-11-17T00:23:05.740Z,11.4
2016-11-17T00:23:15.721Z,11.4
2016-11-17T00:23:25.723Z,11.4
2016-11-17T00:23:35.711Z,11.4
2016-11-17T00:23:45.704Z,11.4
2016-11-17T00:23:55.679Z,11.4
2016-11-17T00:24:05.689Z,11.4
2016-11-17T00:24:15.692Z,11.4
2016-11-17T00:24:25.679Z,11.4
2016-11-17T00:24:35.712Z,11.4
2016-11-17T00:24:45.683Z,11.4
2016-11-17T00:24:55.660Z,11.4
2016-11-17T00:25:05.662Z,11.4
2016-11-17T00:25:15.650Z,11.4
2016-11-17T00:25:25.650Z,11.4
2016-11-17T00:25:35.635Z,11.4
2016-11-17T00:25:45.634Z,11.4
2016-11-17T00:25:55.625Z,11.4
2016-11-17T00:26:05.623Z,11.4
2016-11-17T00:26:15.602Z,11.4
2016-11-17T00:26:25.608Z,11.4
2016-11-17T00:26:35.604Z,11.4
2016-11-17T00:26:45.935Z,11.4
2016-11-17T00:26:55.582Z,11.4
2016-11-17T00:27:05.599Z,11.4
2016-11-17T00:27:15.596Z,11.4
2016-11-17T00:27:25.585Z,11.4
2016-11-17T00:27:35.551Z,11.4
2016-11-17T00:27:45.565Z,11.4
2016-11-17T00:27:55.538Z,11.4
2016-11-17T00:28:05.535Z,11.4
2016-11-17T00:28:15.554Z,11.4
2016-11-17T00:28:25.551Z,11.4
2016-11-17T00:28:35.541Z,11.4
2016-11-17T00:28:45.531Z,11.4
2016-11-17T00:28:55.548Z,11.4
2016-11-17T00:29:05.527Z,11.4
2016-11-17T00:29:15.510Z,11.4
2016-11-17T00:29:25.496Z,11.4
2016-11-17T00:29:35.497Z,11.4
2016-11-17T00:29:45.484Z,11.4
2016-11-17T00:29:55.497Z,11.4
2016-11-17T00:30:05.488Z,11.4
2016-11-17T00:30:15.485Z,11.4
2016-11-17T00:30:25.488Z,11.4
2016-11-17T00:30:35.483Z,11.4
2016-11-17T00:30:45.461Z,11.4
2016-11-17T00:30:55.449Z,11.4
2016-11-17T00:31:05.447Z,11.4
2016-11-17T00:31:15.443Z,11.4
2016-11-17T00:31:25.439Z,11.4
2016-11-17T00:31:35.445Z,11.4
2016-11-17T00:31:45.421Z,11.4
2016-11-17T00:31:55.417Z,11.4
2016-11-17T00:32:05.419Z,11.4
2016-11-17T00:32:15.404Z,11.4
2016-11-17T00:32:25.413Z,11.4
2016-11-17T00:32:35.406Z,11.4
2016-11-17T00:32:45.396Z,11.4
2016-11-17T00:32:55.374Z,11.4
2016-11-17T00:33:05.378Z,11.4
2016-11-17T00:33:15.371Z,11.4
2016-11-17T00:33:25.380Z,11.4
2016-11-17T00:33:35.371Z,11.4
2016-11-17T00:33:45.355Z,11.4
2016-11-17T00:33:55.360Z,11.4
2016-11-17T00:34:05.343Z,11.4
2016-11-17T00:34:15.333Z,11.4
2016-11-17T00:34:25.332Z,11.4
2016-11-17T00:34:35.321Z,11.4
2016-11-17T00:34:45.650Z,11.4
2016-11-17T00:34:55.321Z,11.4
2016-11-17T00:35:05.316Z,11.4
2016-11-17T00:35:15.298Z,11.4
2016-11-17T00:35:25.285Z,11.4
2016-11-17T00:35:35.298Z,11.4
2016-11-17T00:35:45.288Z,11.4
2016-11-17T00:35:55.277Z,11.3
2016-11-17T00:36:05.275Z,11.3
2016-11-17T00:36:15.266Z,11.3
2016-11-17T00:36:25.635Z,11.3
2016-11-17T00:36:35.262Z,11.3
2016-11-17T00:36:45.263Z,11.3
2016-11-17T00:36:55.250Z,11.3
2016-11-17T00:37:05.242Z,11.3
2016-11-17T00:37:15.225Z,11.3
2016-11-17T00:37:25.222Z,11.3
2016-11-17T00:37:35.231Z,11.3
2016-11-17T00:37:45.195Z,11.3
2016-11-17T00:37:55.203Z,11.3
2016-11-17T00:38:05.207Z,11.3
2016-11-17T00:38:15.188Z,11.3
2016-11-17T00:38:25.182Z,11.3
2016-11-17T00:38:35.162Z,11.3
2016-11-17T00:38:45.170Z,11.3
2016-11-17T00:38:55.175Z,11.3
2016-11-17T00:39:05.168Z,11.3
2016-11-17T00:39:15.180Z,11.3
2016-11-17T00:39:25.146Z,11.3
2016-11-17T00:39:35.165Z,11.3
2016-11-17T00:39:45.149Z,11.3
2016-11-17T00:39:55.147Z,11.3
2016-11-17T00:40:05.120Z,11.3
2016-11-17T00:40:15.140Z,11.3
2016-11-17T00:40:25.132Z,11.3
2016-11-17T00:40:35.157Z,11.3
2016-11-17T00:40:45.108Z,11.3
2016-11-17T00:40:55.108Z,11.3
2016-11-17T00:41:05.109Z,11.3
2016-11-17T00:41:15.099Z,11.3
2016-11-17T00:41:25.101Z,11.3
2016-11-17T00:41:35.118Z,11.3
2016-11-17T00:41:45.067Z,11.3
2016-11-17T00:41:55.058Z,11.3
2016-11-17T00:42:05.058Z,11.3
2016-11-17T00:42:15.062Z,11.3
2016-11-17T00:42:25.065Z,11.3
2016-11-17T00:42:35.043Z,11.3
2016-11-17T00:42:45.051Z,11.3
2016-11-17T00:42:55.025Z,11.3
2016-11-17T00:43:05.035Z,11.3
2016-11-17T00:43:15.012Z,11.3
2016-11-17T00:43:25.029Z,11.3
2016-11-17T00:43:35.042Z,11.3
2016-11-17T00:43:45.021Z,11.3
2016-11-17T00:43:54.997Z,11.3
2016-11-17T00:44:04.988Z,11.3
2016-11-17T00:44:14.988Z,11.3
2016-11-17T00:44:24.980Z,11.3
2016-11-17T00:44:34.977Z,11.3
2016-11-17T00:44:44.972Z,11.3
2016-11-17T00:44:54.962Z,11.3
2016-11-17T00:45:04.962Z,11.3
2016-11-17T00:45:14.954Z,11.3
2016-11-17T00:45:24.950Z,11.3
2016-11-17T00:45:34.947Z,11.3
2016-11-17T00:45:44.940Z,11.3
2016-11-17T00:45:54.944Z,11.3
2016-11-17T00:46:04.921Z,11.2
2016-11-17T00:46:14.932Z,11.2
2016-11-17T00:46:24.899Z,11.2
2016-11-17T00:46:34.920Z,11.2
2016-11-17T00:46:44.894Z,11.2
2016-11-17T00:46:54.894Z,11.2
2016-11-17T00:47:04.877Z,11.2
2016-11-17T00:47:14.889Z,11.2
2016-11-17T00:47:24.874Z,11.2
2016-11-17T00:47:34.891Z,11.2
2016-11-17T00:47:44.872Z,11.2
2016-11-17T00:47:54.852Z,11.2
2016-11-17T00:48:05.186Z,11.2
2016-11-17T00:48:14.850Z,11.2
2016-11-17T00:48:24.825Z,11.2
2016-11-17T00:48:34.873Z,11.2
2016-11-17T00:48:44.827Z,11.2
2016-11-17T00:48:54.804Z,11.2
2016-11-17T00:49:04.812Z,11.2
2016-11-17T00:49:14.817Z,11.2
2016-11-17T00:49:24.813Z,11.2
2016-11-17T00:49:34.801Z,11.2
2016-11-17T00:49:44.786Z,11.2
2016-11-17T00:49:54.812Z,11.2
2016-11-17T00:50:04.788Z,11.2
2016-11-17T00:50:14.784Z,11.2
2016-11-17T00:50:24.778Z,11.2
2016-11-17T00:50:34.777Z,11.2
2016-11-17T00:50:44.752Z,11.2
2016-11-17T00:50:54.754Z,11.2
2016-11-17T00:51:04.745Z,11.2
2016-11-17T00:51:14.730Z,11.2
2016-11-17T00:51:24.739Z,11.2
2016-11-17T00:51:34.741Z,11.2
2016-11-17T00:51:44.735Z,11.2
2016-11-17T00:51:54.723Z,11.2
2016-11-17T00:52:04.704Z,11.2
2016-11-17T00:52:14.712Z,11.2
2016-11-17T00:52:24.692Z,11.2
2016-11-17T00:52:34.741Z,11.2
2016-11-17T00:52:44.687Z,11.2
2016-11-17T00:52:54.665Z,11.2
2016-11-17T00:53:04.689Z,11.2
2016-11-17T00:53:14.706Z,11.2
2016-11-17T00:53:24.680Z,11.2
2016-11-17T00:53:34.666Z,11.2
2016-11-17T00:53:44.659Z,11.2
2016-11-17T00:53:54.646Z,11.2
2016-11-17T00:54:04.655Z,11.2
2016-11-17T00:54:14.648Z,11.1
2016-11-17T00:54:24.629Z,11.1
2016-11-17T00:54:34.610Z,11.1
2016-11-17T00:54:44.774Z,11.1
2016-11-17T00:54:54.621Z,11.1
2016-11-17T00:55:04.613Z,11.1
2016-11-17T00:55:14.606Z,11.1
2016-11-17T00:55:24.595Z,11.1
2016-11-17T00:55:34.572Z,11.1
2016-11-17T00:55:44.595Z,11.1
2016-11-17T00:55:54.587Z,11.1
2016-11-17T00:56:04.577Z,11.1
2016-11-17T00:56:14.609Z,11.1
2016-11-17T00:56:24.588Z,11.1
2016-11-17T00:56:34.558Z,11.1
2016-11-17T00:56:44.564Z,11.1
2016-11-17T00:56:54.554Z,11.1
2016-11-17T00:57:04.536Z,11.1
2016-11-17T00:57:14.539Z,11.1
2016-11-17T00:57:24.536Z,11.1
2016-11-17T00:57:34.531Z,11.1
2016-11-17T00:57:44.520Z,11.1
2016-11-17T00:57:54.511Z,11.1
2016-11-17T00:58:04.492Z,11.1
2016-11-17T00:58:14.504Z,11.1
2016-11-17T00:58:24.495Z,11.1
2016-11-17T00:58:34.536Z,11.1
2016-11-17T00:58:44.643Z,11.1
2016-11-17T00:58:54.463Z,11.1
2016-11-17T00:59:04.468Z,11.1
2016-11-17T00:59:14.497Z,11.1
2016-11-17T00:59:24.455Z,11.1
2016-11-17T00:59:34.452Z,11.1
2016-11-17T00:59:44.446Z,11.1
2016-11-17T00:59:54.783Z,11.1
2016-11-17T01:00:04.446Z,11.1
2016-11-17T01:00:14.420Z,11.1
2016-11-17T01:00:24.428Z,11.1
2016-11-17T01:00:34.411Z,11.1
2016-11-17T01:00:44.404Z,11.1
2016-11-17T01:00:54.408Z,11.1
2016-11-17T01:01:04.395Z,11.1
2016-11-17T01:01:14.410Z,11.1
2016-11-17T01:01:24.401Z,11.1
2016-11-17T01:01:34.389Z,11.1
2016-11-17T01:01:44.365Z,11.1
2016-11-17T01:01:54.372Z,11.1
2016-11-17T01:02:04.372Z,11.1
2016-11-17T01:02:14.355Z,11.1
2016-11-17T01:02:24.367Z,11.1
2016-11-17T01:02:34.333Z,11.1
2016-11-17T01:02:44.342Z,11.1
2016-11-17T01:02:54.334Z,11
2016-11-17T01:03:04.340Z,11
2016-11-17T01:03:14.332Z,11
2016-11-17T01:03:24.310Z,11.1
2016-11-17T01:03:34.343Z,11.1
2016-11-17T01:03:44.319Z,11.1
2016-11-17T01:03:54.309Z,11.1
2016-11-17T01:04:04.304Z,11.1
2016-11-17T01:04:14.307Z,11.1
2016-11-17T01:04:24.280Z,11
2016-11-17T01:04:34.282Z,11.1
2016-11-17T01:04:44.263Z,11
2016-11-17T01:04:54.264Z,11
2016-11-17T01:05:04.264Z,11
2016-11-17T01:05:14.258Z,11
2016-11-17T01:05:24.254Z,11
2016-11-17T01:05:34.237Z,11.1
2016-11-17T01:05:44.230Z,11
2016-11-17T01:05:54.221Z,11
2016-11-17T01:06:04.216Z,11
2016-11-17T01:06:14.216Z,11
2016-11-17T01:06:24.214Z,11.1
2016-11-17T01:06:34.214Z,11.1
2016-11-17T01:06:44.204Z,11
2016-11-17T01:06:54.175Z,11
2016-11-17T01:07:04.189Z,11
2016-11-17T01:07:14.192Z,11
2016-11-17T01:07:24.169Z,11
2016-11-17T01:07:34.184Z,11
2016-11-17T01:07:44.176Z,11
2016-11-17T01:07:54.176Z,11
2016-11-17T01:08:04.152Z,11
2016-11-17T01:08:14.164Z,11
2016-11-17T01:08:24.156Z,11
2016-11-17T01:08:34.143Z,11
2016-11-17T01:08:44.132Z,11
2016-11-17T01:08:54.114Z,11
2016-11-17T01:09:04.131Z,11
2016-11-17T01:09:14.108Z,11
2016-11-17T01:09:24.260Z,11
2016-11-17T01:09:34.108Z,11
2016-11-17T01:09:44.087Z,11
2016-11-17T01:09:54.126Z,11
2016-11-17T01:10:04.085Z,11
2016-11-17T01:10:14.062Z,11
2016-11-17T01:10:24.079Z,11
2016-11-17T01:10:34.071Z,11
2016-11-17T01:10:44.079Z,11
2016-11-17T01:10:54.051Z,11
2016-11-17T01:11:04.054Z,11
2016-11-17T01:11:14.043Z,11
2016-11-17T01:11:24.040Z,11
2016-11-17T01:11:34.044Z,11
2016-11-17T01:11:44.027Z,10.9
2016-11-17T01:11:54.017Z,10.9
2016-11-17T01:12:04.055Z,10.9
2016-11-17T01:12:14.003Z,10.9
2016-11-17T01:12:24.008Z,10.9
2016-11-17T01:12:33.997Z,10.9
2016-11-17T01:12:43.981Z,10.9
2016-11-17T01:12:53.967Z,10.9
2016-11-17T01:13:03.996Z,10.9
2016-11-17T01:13:13.972Z,10.9
2016-11-17T01:13:23.986Z,10.9
2016-11-17T01:13:34.117Z,10.9
2016-11-17T01:13:43.967Z,10.9
2016-11-17T01:13:53.928Z,10.9
2016-11-17T01:14:03.955Z,10.9
2016-11-17T01:14:13.937Z,10.9
2016-11-17T01:14:23.935Z,10.9
2016-11-17T01:14:33.941Z,10.9
2016-11-17T01:14:43.920Z,10.9
2016-11-17T01:14:53.924Z,10.9
2016-11-17T01:15:03.896Z,10.9
2016-11-17T01:15:13.900Z,10.9
2016-11-17T01:15:23.898Z,10.9
2016-11-17T01:15:33.927Z,10.9
2016-11-17T01:15:43.918Z,10.9
2016-11-17T01:15:53.875Z,10.9
2016-11-17T01:16:03.860Z,10.9
2016-11-17T01:16:13.857Z,10.9
2016-11-17T01:16:23.857Z,10.9
2016-11-17T01:16:34.188Z,10.9
2016-11-17T01:16:43.843Z,10.9
2016-11-17T01:16:53.831Z,10.9
2016-11-17T01:17:03.838Z,10.9
2016-11-17T01:17:13.853Z,10.9
2016-11-17T01:17:24.177Z,10.9
2016-11-17T01:17:33.817Z,10.9
2016-11-17T01:17:43.820Z,10.9
2016-11-17T01:17:53.822Z,10.9
2016-11-17T01:18:03.819Z,10.9
2016-11-17T01:18:13.791Z,10.9
2016-11-17T01:18:23.803Z,10.9
2016-11-17T01:18:33.784Z,10.8
2016-11-17T01:18:43.785Z,10.9
2016-11-17T01:18:53.782Z,10.9
2016-11-17T01:19:03.773Z,10.9
2016-11-17T01:19:13.761Z,10.8
2016-11-17T01:19:23.755Z,10.9
2016-11-17T01:19:33.744Z,10.9
2016-11-17T01:19:43.731Z,10.9
2016-11-17T01:19:53.741Z,10.9
2016-11-17T01:20:03.736Z,10.8
2016-11-17T01:20:13.747Z,10.9
2016-11-17T01:20:23.722Z,10.8
2016-11-17T01:20:33.714Z,10.8
2016-11-17T01:20:43.715Z,10.8
2016-11-17T01:20:53.690Z,10.8
2016-11-17T01:21:03.712Z,10.8
2016-11-17T01:21:13.703Z,10.8
2016-11-17T01:21:23.695Z,10.8
2016-11-17T01:21:33.679Z,10.8
2016-11-17T01:21:43.651Z,10.8
2016-11-17T01:21:53.671Z,10.8
2016-11-17T01:22:03.671Z,10.8
2016-11-17T01:22:13.664Z,10.8
2016-11-17T01:22:23.659Z,10.8
2016-11-17T01:22:33.644Z,10.8
2016-11-17T01:22:43.625Z,10.8
2016-11-17T01:22:53.628Z,10.8
2016-11-17T01:23:03.970Z,10.8
2016-11-17T01:23:13.613Z,10.8
2016-11-17T01:23:23.644Z,10.8
2016-11-17T01:23:33.617Z,10.8
2016-11-17T01:23:43.614Z,10.8
2016-11-17T01:23:53.600Z,10.8
2016-11-17T01:24:03.590Z,10.8
2016-11-17T01:24:13.578Z,10.8
2016-11-17T01:24:23.571Z,10.8
2016-11-17T01:24:33.565Z,10.8
2016-11-17T01:24:43.565Z,10.8
2016-11-17T01:24:53.566Z,10.8
2016-11-17T01:25:03.553Z,10.8
2016-11-17T01:25:13.571Z,10.8
2016-11-17T01:25:23.561Z,10.8
2016-11-17T01:25:33.556Z,10.8
2016-11-17T01:25:43.538Z,10.8
2016-11-17T01:25:53.513Z,10.8
2016-11-17T01:26:03.531Z,10.8
2016-11-17T01:26:13.523Z,10.8
2016-11-17T01:26:23.515Z,10.8
2016-11-17T01:26:33.512Z,10.8
2016-11-17T01:26:43.488Z,10.8
2016-11-17T01:26:53.503Z,10.8
2016-11-17T01:27:03.484Z,10.8
2016-11-17T01:27:13.499Z,10.8
2016-11-17T01:27:23.481Z,10.8
2016-11-17T01:27:33.503Z,10.8
2016-11-17T01:27:43.466Z,10.8
2016-11-17T01:27:53.451Z,10.8
2016-11-17T01:28:03.467Z,10.8
2016-11-17T01:28:13.448Z,10.8
2016-11-17T01:28:23.455Z,10.8
2016-11-17T01:28:33.480Z,10.8
2016-11-17T01:28:43.442Z,10.8
2016-11-17T01:28:53.420Z,10.8
2016-11-17T01:29:03.424Z,10.8
2016-11-17T01:29:13.405Z,10.8
2016-11-17T01:29:23.411Z,10.8
2016-11-17T01:29:33.410Z,10.8
2016-11-17T01:29:43.391Z,10.8
2016-11-17T01:29:53.381Z,10.8
2016-11-17T01:30:03.387Z,10.8
2016-11-17T01:30:13.364Z,10.7
2016-11-17T01:30:23.374Z,10.7
2016-11-17T01:30:33.359Z,10.7
2016-11-17T01:30:43.355Z,10.7
2016-11-17T01:30:53.357Z,10.7
2016-11-17T01:31:03.390Z,10.7
2016-11-17T01:31:13.356Z,10.7
2016-11-17T01:31:23.350Z,10.7
2016-11-17T01:31:33.652Z,10.7
2016-11-17T01:31:43.330Z,10.7
2016-11-17T01:31:53.306Z,10.7
2016-11-17T01:32:03.310Z,10.7
2016-11-17T01:32:13.309Z,10.7
2016-11-17T01:32:23.304Z,10.7
2016-11-17T01:32:33.287Z,10.7
2016-11-17T01:32:43.339Z,10.7
2016-11-17T01:32:53.290Z,10.7
2016-11-17T01:33:03.285Z,10.7
2016-11-17T01:33:13.264Z,10.7
2016-11-17T01:33:23.242Z,10.7
2016-11-17T01:33:33.261Z,10.7
2016-11-17T01:33:43.427Z,10.7
2016-11-17T01:33:53.239Z,10.7
2016-11-17T01:34:03.253Z,10.7
2016-11-17T01:34:13.237Z,10.7
2016-11-17T01:34:23.242Z,10.7
2016-11-17T01:34:33.231Z,10.7
2016-11-17T01:34:43.225Z,10.7
2016-11-17T01:34:53.207Z,10.7
2016-11-17T01:35:03.209Z,10.7
2016-11-17T01:35:13.215Z,10.7
2016-11-17T01:35:23.224Z,10.7
2016-11-17T01:35:33.194Z,10.7
2016-11-17T01:35:43.184Z,10.7
2016-11-17T01:35:53.180Z,10.7
2016-11-17T01:36:03.192Z,10.7
2016-11-17T01:36:13.175Z,10.7
2016-11-17T01:36:23.155Z,10.7
2016-11-17T01:36:33.152Z,10.7
2016-11-17T01:36:43.153Z,10.7
2016-11-17T01:36:53.157Z,10.7
2016-11-17T01:37:03.130Z,10.7
2016-11-17T01:37:13.128Z,10.7
2016-11-17T01:37:23.140Z,10.7
2016-11-17T01:37:33.117Z,10.7
2016-11-17T01:37:43.125Z,10.7
2016-11-17T01:37:53.116Z,10.7
2016-11-17T01:38:03.106Z,10.7
2016-11-17T01:38:13.093Z,10.7
2016-11-17T01:38:23.092Z,10.7
2016-11-17T01:38:33.095Z,10.7
2016-11-17T01:38:43.090Z,10.7
2016-11-17T01:38:53.091Z,10.7
2016-11-17T01:39:03.064Z,10.7
2016-11-17T01:39:13.045Z,10.7
2016-11-17T01:39:23.063Z,10.7
2016-11-17T01:39:33.052Z,10.7
2016-11-17T01:39:43.048Z,10.7
2016-11-17T01:39:53.047Z,10.7
2016-11-17T01:40:03.030Z,10.7
2016-11-17T01:40:13.026Z,10.7
2016-11-17T01:40:23.025Z,10.7
2016-11-17T01:40:33.013Z,10.7
2016-11-17T01:40:43.009Z,10.7
2016-11-17T01:40:53.007Z,10.7
2016-11-17T01:41:02.992Z,10.7
2016-11-17T01:41:12.992Z,10.7
2016-11-17T01:41:22.990Z,10.7
2016-11-17T01:41:32.992Z,10.7
2016-11-17T01:41:42.963Z,10.7
2016-11-17T01:41:52.970Z,10.7
2016-11-17T01:42:02.969Z,10.7
2016-11-17T01:42:12.948Z,10.7
2016-11-17T01:42:22.960Z,10.7
2016-11-17T01:42:32.947Z,10.7
2016-11-17T01:42:42.958Z,10.7
2016-11-17T01:42:52.955Z,10.7
2016-11-17T01:43:02.937Z,10.7
2016-11-17T01:43:12.937Z,10.7
2016-11-17T01:43:22.914Z,10.7
2016-11-17T01:43:32.919Z,10.7
2016-11-17T01:43:42.893Z,10.7
2016-11-17T01:43:52.902Z,10.7
2016-11-17T01:44:02.907Z,10.7
2016-11-17T01:44:12.872Z,10.7
2016-11-17T01:44:22.874Z,10.7
2016-11-17T01:44:32.897Z,10.7
2016-11-17T01:44:43.203Z,10.7
2016-11-17T01:44:52.864Z,10.7
2016-11-17T01:45:02.864Z,10.7
2016-11-17T01:45:12.848Z,10.7
2016-11-17T01:45:22.853Z,10.7
2016-11-17T01:45:32.847Z,10.7
2016-11-17T01:45:42.834Z,10.7
2016-11-17T01:45:52.817Z,10.7
2016-11-17T01:46:02.816Z,10.7
2016-11-17T01:46:12.818Z,10.7
2016-11-17T01:46:22.811Z,10.7
2016-11-17T01:46:32.790Z,10.7
2016-11-17T01:46:42.808Z,10.7
2016-11-17T01:46:52.780Z,10.7
2016-11-17T01:47:02.791Z,10.7
2016-11-17T01:47:12.775Z,10.7
2016-11-17T01:47:22.782Z,10.7
2016-11-17T01:47:32.763Z,10.7
2016-11-17T01:47:42.770Z,10.7
2016-11-17T01:47:52.762Z,10.7
2016-11-17T01:48:02.757Z,10.7
2016-11-17T01:48:12.746Z,10.7
2016-11-17T01:48:22.738Z,10.7
2016-11-17T01:48:32.742Z,10.7
2016-11-17T01:48:42.737Z,10.7
2016-11-17T01:48:52.723Z,10.7
2016-11-17T01:49:02.712Z,10.7
2016-11-17T01:49:12.716Z,10.7
2016-11-17T01:49:22.693Z,10.7
2016-11-17T01:49:32.697Z,10.7
2016-11-17T01:49:42.666Z,10.7
2016-11-17T01:49:52.687Z,10.7
2016-11-17T01:50:02.698Z,10.7
2016-11-17T01:50:12.678Z,10.7
2016-11-17T01:50:22.669Z,10.7
2016-11-17T01:50:32.821Z,10.7
2016-11-17T01:50:42.671Z,10.7
2016-11-17T01:50:52.649Z,10.7
2016-11-17T01:51:02.659Z,10.7
2016-11-17T01:51:12.627Z,10.7
2016-11-17T01:51:22.621Z,10.7
2016-11-17T01:51:32.628Z,10.7
2016-11-17T01:51:42.616Z,10.7
2016-11-17T01:51:52.620Z,10.7
2016-11-17T01:52:02.606Z,10.7
2016-11-17T01:52:12.601Z,10.7
2016-11-17T01:52:22.595Z,10.7
2016-11-17T01:52:32.601Z,10.7
2016-11-17T01:52:42.621Z,10.7
2016-11-17T01:52:52.725Z,10.7
2016-11-17T01:53:02.575Z,10.7
2016-11-17T01:53:12.589Z,10.7
2016-11-17T01:53:22.574Z,10.7
2016-11-17T01:53:32.565Z,10.7
2016-11-17T01:53:42.547Z,10.7
2016-11-17T01:53:52.535Z,10.7
2016-11-17T01:54:02.548Z,10.7
2016-11-17T01:54:12.548Z,10.7
2016-11-17T01:54:22.521Z,10.7
2016-11-17T01:54:32.536Z,10.7
2016-11-17T01:54:42.551Z,10.7
2016-11-17T01:54:52.516Z,10.7
2016-11-17T01:55:02.834Z,10.7
2016-11-17T01:55:12.494Z,10.6
2016-11-17T01:55:22.505Z,10.6
2016-11-17T01:55:32.499Z,10.6
2016-11-17T01:55:42.480Z,10.6
2016-11-17T01:55:52.471Z,10.6
2016-11-17T01:56:02.478Z,10.6
2016-11-17T01:56:12.461Z,10.7
2016-11-17T01:56:22.440Z,10.6
2016-11-17T01:56:32.493Z,10.6
2016-11-17T01:56:42.469Z,10.6
2016-11-17T01:56:52.440Z,10.6
2016-11-17T01:57:02.438Z,10.6
2016-11-17T01:57:12.420Z,10.6
2016-11-17T01:57:22.430Z,10.6
2016-11-17T01:57:32.431Z,10.6
2016-11-17T01:57:42.419Z,10.6
2016-11-17T01:57:52.397Z,10.6
2016-11-17T01:58:02.411Z,10.6
2016-11-17T01:58:12.389Z,10.6
2016-11-17T01:58:22.388Z,10.6
2016-11-17T01:58:32.423Z,10.6
2016-11-17T01:58:42.356Z,10.6
2016-11-17T01:58:52.392Z,10.6
2016-11-17T01:59:02.352Z,10.6
2016-11-17T01:59:12.353Z,10.6
2016-11-17T01:59:22.362Z,10.6
2016-11-17T01:59:32.366Z,10.6
2016-11-17T01:59:42.344Z,10.6
2016-11-17T01:59:52.327Z,10.6
2016-11-17T02:00:02.326Z,10.6
2016-11-17T02:00:12.315Z,10.6
2016-11-17T02:00:22.320Z,10.6
2016-11-17T02:00:32.296Z,10.6
2016-11-17T02:00:42.315Z,10.6
2016-11-17T02:00:52.296Z,10.6
2016-11-17T02:01:02.295Z,10.6
2016-11-17T02:01:12.280Z,10.6
2016-11-17T02:01:22.283Z,10.6
2016-11-17T02:01:32.620Z,10.6
2016-11-17T02:01:42.267Z,10.6
2016-11-17T02:01:52.264Z,10.6
2016-11-17T02:02:02.256Z,10.6
2016-11-17T02:02:12.247Z,10.6
2016-11-17T02:02:22.252Z,10.6
2016-11-17T02:02:32.232Z,10.6
2016-11-17T02:02:42.240Z,10.6
2016-11-17T02:02:52.234Z,10.6
2016-11-17T02:03:02.231Z,10.6
2016-11-17T02:03:12.255Z,10.6
2016-11-17T02:03:22.215Z,10.6
2016-11-17T02:03:32.190Z,10.6
2016-11-17T02:03:42.191Z,10.6
2016-11-17T02:03:52.198Z,10.6
2016-11-17T02:04:02.181Z,10.6
2016-11-17T02:04:12.201Z,10.6
2016-11-17T02:04:22.181Z,10.6
2016-11-17T02:04:32.213Z,10.6
2016-11-17T02:04:42.162Z,10.6
2016-11-17T02:04:52.147Z,10.6
2016-11-17T02:05:02.500Z,10.6
2016-11-17T02:05:12.150Z,10.6
2016-11-17T02:05:22.139Z,10.6
2016-11-17T02:05:32.181Z,10.6
2016-11-17T02:05:42.121Z,10.6
2016-11-17T02:05:52.121Z,10.6
2016-11-17T02:06:02.118Z,10.6
2016-11-17T02:06:12.127Z,10.6
2016-11-17T02:06:22.110Z,10.6
2016-11-17T02:06:32.100Z,10.6
2016-11-17T02:06:42.104Z,10.6
2016-11-17T02:06:52.115Z,10.6
2016-11-17T02:07:02.086Z,10.6
2016-11-17T02:07:12.086Z,10.6
2016-11-17T02:07:22.077Z,10.6
2016-11-17T02:07:32.080Z,10.6
2016-11-17T02:07:42.055Z,10.6
2016-11-17T02:07:52.058Z,10.6
2016-11-17T02:08:02.059Z,10.6
2016-11-17T02:08:12.393Z,10.6
2016-11-17T02:08:22.031Z,10.6
2016-11-17T02:08:32.016Z,10.6
2016-11-17T02:08:42.043Z,10.6
2016-11-17T02:08:52.033Z,10.6
2016-11-17T02:09:02.010Z,10.6
2016-11-17T02:09:12.024Z,10.6
2016-11-17T02:09:21.999Z,10.6
2016-11-17T02:09:31.995Z,10.6
2016-11-17T02:09:41.988Z,10.6
2016-11-17T02:09:51.994Z,10.6
2016-11-17T02:10:01.979Z,10.6
2016-11-17T02:10:11.963Z,10.5
2016-11-17T02:10:22.012Z,10.6
2016-11-17T02:10:31.969Z,10.6
2016-11-17T02:10:41.972Z,10.6
2016-11-17T02:10:51.960Z,10.6
2016-11-17T02:11:01.922Z,10.6
2016-11-17T02:11:11.941Z,10.6
2016-11-17T02:11:21.942Z,10.6
2016-11-17T02:11:31.931Z,10.6
2016-11-17T02:11:41.937Z,10.6
2016-11-17T02:11:51.914Z,10.6
2016-11-17T02:12:01.908Z,10.6
2016-11-17T02:12:11.909Z,10.6
2016-11-17T02:12:21.883Z,10.6
2016-11-17T02:12:31.900Z,10.6
2016-11-17T02:12:41.890Z,10.6
2016-11-17T02:12:51.877Z,10.6
2016-11-17T02:13:01.877Z,10.6
2016-11-17T02:13:11.905Z,10.6
2016-11-17T02:13:21.870Z,10.6
2016-11-17T02:13:31.855Z,10.6